createdAt,value
2023-05-21T00:01:51.128Z,53.79
2023-05-21T00:04:20.134Z,53.27
2023-05-21T00:09:16.457Z,53.07
2023-05-21T00:11:43.097Z,52.17
2023-05-21T00:14:09.994Z,54.50
2023-05-21T00:16:36.634Z,54.49
2023-05-21T00:19:03.603Z,54.05
2023-05-21T00:21:30.587Z,54.33
2023-05-21T00:23:58.028Z,55.24
2023-05-21T00:26:24.599Z,56.68
2023-05-21T00:28:51.160Z,56.48
2023-05-21T00:31:17.846Z,55.76
2023-05-21T00:33:45.078Z,57.94
2023-05-21T00:36:11.733Z,59.66
2023-05-21T00:38:38.333Z,58.62
2023-05-21T00:41:04.999Z,59.11
2023-05-21T00:43:31.592Z,59.25
2023-05-21T00:45:58.315Z,59.43
2023-05-21T00:48:24.978Z,60.10
2023-05-21T00:50:51.709Z,58.92
2023-05-21T00:53:18.567Z,58.48
2023-05-21T00:55:45.153Z,57.76
2023-05-21T00:58:11.661Z,56.40
2023-05-21T01:00:38.532Z,54.86
2023-05-21T01:03:06.396Z,54.08
2023-05-21T01:05:33.228Z,55.37
2023-05-21T01:07:59.873Z,55.72
2023-05-21T01:10:26.834Z,54.76
2023-05-21T01:12:53.591Z,54.59
2023-05-21T01:15:20.282Z,54.33
2023-05-21T01:17:46.927Z,56.67
2023-05-21T01:20:15.884Z,55.81
2023-05-21T01:22:42.584Z,54.44
2023-05-21T01:25:14.483Z,53.57
2023-05-21T01:27:41.123Z,53.86
2023-05-21T01:30:07.955Z,54.33
2023-05-21T01:32:34.775Z,54.39
2023-05-21T01:35:01.408Z,54.36
2023-05-21T01:37:28.193Z,54.39
2023-05-21T01:39:54.846Z,54.31
2023-05-21T01:42:21.355Z,54.51
2023-05-21T01:44:48.188Z,54.70
2023-05-21T01:47:16.141Z,56.15
2023-05-21T01:49:42.779Z,55.92
2023-05-21T01:52:10.739Z,55.55
2023-05-21T01:54:37.409Z,55.86
2023-05-21T01:57:05.181Z,55.44
2023-05-21T01:59:31.888Z,55.52
2023-05-21T02:01:58.406Z,55.37
2023-05-21T02:04:25.027Z,55.49
2023-05-21T02:06:51.657Z,55.30
2023-05-21T02:09:18.315Z,55.28
2023-05-21T02:11:44.964Z,55.93
2023-05-21T02:14:11.812Z,56.27
2023-05-21T02:16:39.245Z,56.85
2023-05-21T02:19:05.826Z,56.15
2023-05-21T02:21:33.722Z,55.92
2023-05-21T02:24:01.198Z,55.76
2023-05-21T02:26:30.376Z,55.73
2023-05-21T02:28:57.021Z,55.67
2023-05-21T02:31:23.914Z,55.72
2023-05-21T02:33:57.912Z,55.64
2023-05-21T02:36:24.427Z,55.39
2023-05-21T02:38:50.975Z,55.39
2023-05-21T02:41:17.580Z,55.29
2023-05-21T02:43:44.170Z,55.40
2023-05-21T02:46:10.881Z,55.57
2023-05-21T02:48:37.438Z,56.33
2023-05-21T02:51:04.335Z,55.97
2023-05-21T02:53:31.070Z,55.61
2023-05-21T02:55:57.846Z,55.40
2023-05-21T02:58:25.040Z,55.52
2023-05-21T03:00:52.913Z,54.81
2023-05-21T03:03:19.816Z,54.51
2023-05-21T03:05:46.681Z,54.72
2023-05-21T03:08:13.373Z,55.85
2023-05-21T03:10:40.111Z,55.35
2023-05-21T03:13:10.530Z,55.96
2023-05-21T03:15:37.234Z,56.12
2023-05-21T03:18:04.272Z,56.28
2023-05-21T03:20:31.645Z,56.39
2023-05-21T03:22:58.542Z,56.08
2023-05-21T03:25:25.566Z,56.32
2023-05-21T03:27:52.441Z,56.25
2023-05-21T03:30:19.260Z,56.50
2023-05-21T03:32:46.133Z,56.78
2023-05-21T03:35:13.144Z,56.58
2023-05-21T03:40:13.135Z,56.47
2023-05-21T03:42:41.011Z,56.28
2023-05-21T03:45:07.591Z,56.15
2023-05-21T03:47:34.416Z,56.42
2023-05-21T03:50:00.948Z,58.84
2023-05-21T03:52:28.291Z,58.82
2023-05-21T03:54:55.855Z,57.67
2023-05-21T03:57:22.635Z,56.82
2023-05-21T03:59:49.328Z,56.42
2023-05-21T04:02:16.158Z,56.59
2023-05-21T04:04:42.909Z,56.36
2023-05-21T04:07:09.692Z,55.99
2023-05-21T04:09:36.861Z,55.96
2023-05-21T04:12:03.652Z,56.01
2023-05-21T04:14:30.748Z,56.00
2023-05-21T04:16:57.634Z,56.11
2023-05-21T04:19:24.363Z,56.65
2023-05-21T04:21:50.952Z,57.22
2023-05-21T04:24:17.609Z,57.10
2023-05-21T04:26:44.635Z,55.15
2023-05-21T04:29:18.240Z,55.39
2023-05-21T04:31:45.299Z,54.91
2023-05-21T04:34:13.311Z,54.03
2023-05-21T04:36:39.867Z,53.87
2023-05-21T04:39:06.520Z,55.21
2023-05-21T04:41:33.117Z,55.27
2023-05-21T04:43:59.701Z,54.56
2023-05-21T04:46:29.998Z,55.28
2023-05-21T04:48:56.821Z,55.06
2023-05-21T04:51:23.677Z,54.83
2023-05-21T04:53:50.805Z,54.24
2023-05-21T04:56:17.386Z,54.56
2023-05-21T04:58:44.939Z,53.69
2023-05-21T05:01:14.258Z,54.03
2023-05-21T05:03:41.049Z,54.03
2023-05-21T05:06:08.317Z,54.97
2023-05-21T05:08:35.396Z,54.00
2023-05-21T05:11:01.912Z,53.29
2023-05-21T05:13:28.503Z,53.71
2023-05-21T05:15:55.110Z,54.04
2023-05-21T05:18:21.715Z,54.06
2023-05-21T05:20:48.396Z,54.07
2023-05-21T05:23:15.346Z,54.01
2023-05-21T05:25:42.007Z,53.64
2023-05-21T05:28:09.721Z,52.75
2023-05-21T05:30:36.331Z,52.69
2023-05-21T05:33:03.020Z,52.03
2023-05-21T05:35:32.011Z,53.56
2023-05-21T05:37:58.821Z,53.73
2023-05-21T05:40:25.354Z,53.29
2023-05-21T05:42:52.141Z,53.63
2023-05-21T05:45:18.815Z,52.93
2023-05-21T05:47:45.527Z,52.84
2023-05-21T05:50:12.417Z,52.58
2023-05-21T05:52:40.441Z,52.62
2023-05-21T05:55:08.137Z,52.34
2023-05-21T05:57:34.863Z,52.25
2023-05-21T06:00:01.862Z,51.71
2023-05-21T06:02:28.718Z,51.49
2023-05-21T06:04:55.595Z,51.88
2023-05-21T06:07:24.900Z,51.40
2023-05-21T06:09:52.548Z,51.09
2023-05-21T06:12:19.379Z,51.03
2023-05-21T06:14:46.963Z,50.55
2023-05-21T06:17:14.926Z,50.64
2023-05-21T06:19:41.622Z,50.73
2023-05-21T06:22:08.353Z,50.26
2023-05-21T06:24:35.103Z,49.79
2023-05-21T06:27:01.716Z,50.12
2023-05-21T06:29:28.377Z,50.80
2023-05-21T06:31:54.983Z,50.13
2023-05-21T06:34:21.747Z,50.30
2023-05-21T06:36:48.487Z,49.75
2023-05-21T06:39:16.135Z,49.91
2023-05-21T06:41:42.704Z,49.12
2023-05-21T06:44:09.318Z,48.69
2023-05-21T06:46:35.936Z,49.05
2023-05-21T06:49:02.560Z,48.84
2023-05-21T06:51:29.562Z,48.71
2023-05-21T06:53:56.384Z,47.89
2023-05-21T06:56:23.021Z,46.83
2023-05-21T06:58:49.679Z,46.67
2023-05-21T07:01:16.592Z,46.07
2023-05-21T07:03:43.269Z,45.38
2023-05-21T07:06:10.988Z,44.97
2023-05-21T07:08:38.658Z,44.90
2023-05-21T07:11:05.299Z,44.71
2023-05-21T07:13:31.961Z,43.93
2023-05-21T07:15:58.539Z,43.61
2023-05-21T07:18:25.153Z,44.87
2023-05-21T07:20:52.014Z,45.66
2023-05-21T07:23:18.707Z,44.04
2023-05-21T07:25:47.700Z,43.41
2023-05-21T07:28:14.877Z,43.10
2023-05-21T07:30:42.693Z,43.55
2023-05-21T07:33:09.481Z,43.33
2023-05-21T07:35:36.180Z,43.56
2023-05-21T07:38:04.709Z,42.88
2023-05-21T07:40:32.206Z,43.11
2023-05-21T07:42:58.881Z,42.62
2023-05-21T07:45:25.570Z,41.73
2023-05-21T07:47:52.355Z,41.45
2023-05-21T07:50:19.064Z,41.21
2023-05-21T07:52:46.205Z,41.38
2023-05-21T07:55:12.804Z,42.08
2023-05-21T07:57:39.385Z,41.99
2023-05-21T08:00:08.048Z,42.12
2023-05-21T08:02:34.685Z,42.77
2023-05-21T08:05:04.311Z,43.20
2023-05-21T08:07:31.506Z,42.90
2023-05-21T08:09:58.107Z,43.07
2023-05-21T08:12:24.740Z,42.55
2023-05-21T08:14:51.312Z,44.02
2023-05-21T08:17:19.241Z,43.95
2023-05-21T08:19:45.849Z,43.27
2023-05-21T08:22:12.760Z,43.74
2023-05-21T08:24:39.284Z,44.48
2023-05-21T08:27:06.104Z,44.71
2023-05-21T08:29:34.130Z,44.73
2023-05-21T08:32:01.773Z,43.79
2023-05-21T08:34:28.564Z,44.25
2023-05-21T08:36:55.060Z,43.41
2023-05-21T08:39:22.317Z,42.52
2023-05-21T08:41:49.220Z,43.90
2023-05-21T08:44:15.806Z,42.84
2023-05-21T08:46:42.508Z,43.16
2023-05-21T08:49:09.132Z,43.37
2023-05-21T08:51:35.747Z,42.82
2023-05-21T08:54:02.283Z,42.97
2023-05-21T08:56:28.846Z,42.88
2023-05-21T08:58:55.543Z,43.13
2023-05-21T09:01:24.142Z,43.08
2023-05-21T09:03:51.382Z,43.33
2023-05-21T09:06:17.998Z,42.98
2023-05-21T09:08:44.628Z,43.73
2023-05-21T09:11:11.202Z,44.11
2023-05-21T09:13:39.249Z,43.46
2023-05-21T09:16:06.195Z,44.29
2023-05-21T09:18:32.860Z,44.15
2023-05-21T09:20:59.565Z,43.89
2023-05-21T09:23:26.507Z,43.91
2023-05-21T09:25:53.081Z,44.01
2023-05-21T09:28:20.242Z,44.97
2023-05-21T09:30:47.186Z,44.81
2023-05-21T09:33:14.334Z,45.58
2023-05-21T09:35:41.565Z,46.54
2023-05-21T09:38:08.190Z,46.76
2023-05-21T09:40:37.503Z,45.91
2023-05-21T09:45:51.323Z,47.16
2023-05-21T09:48:21.677Z,46.73
2023-05-21T09:50:48.796Z,46.29
2023-05-21T09:53:15.824Z,46.75
2023-05-21T09:55:43.181Z,47.18
2023-05-21T09:58:09.725Z,46.34
2023-05-21T10:00:36.567Z,46.18
2023-05-21T10:03:03.466Z,45.62
2023-05-21T10:05:30.129Z,47.07
2023-05-21T10:07:57.267Z,45.67
2023-05-21T10:10:24.101Z,45.06
2023-05-21T10:12:50.772Z,43.83
2023-05-21T10:15:17.625Z,44.14
2023-05-21T10:17:44.271Z,43.69
2023-05-21T10:20:10.890Z,43.58
2023-05-21T10:22:37.579Z,44.20
2023-05-21T10:25:04.070Z,43.65
2023-05-21T10:27:32.406Z,45.75
2023-05-21T10:29:59.749Z,45.53
2023-05-21T10:32:26.676Z,44.91
2023-05-21T10:34:53.776Z,45.24
2023-05-21T10:37:24.076Z,45.98
2023-05-21T10:39:51.766Z,45.15
2023-05-21T10:42:19.340Z,44.32
2023-05-21T10:44:46.370Z,43.72
2023-05-21T10:47:12.902Z,43.15
2023-05-21T10:49:39.601Z,43.96
2023-05-21T10:52:07.805Z,42.72
2023-05-21T10:54:36.173Z,43.89
2023-05-21T10:57:03.798Z,43.14
2023-05-21T10:59:30.389Z,44.08
2023-05-21T11:01:57.238Z,42.80
2023-05-21T11:04:24.878Z,41.52
2023-05-21T11:06:51.636Z,41.38
2023-05-21T11:09:18.324Z,42.67
2023-05-21T11:11:45.184Z,42.78
2023-05-21T11:14:11.951Z,42.42
2023-05-21T11:16:39.064Z,41.37
2023-05-21T11:19:05.952Z,42.14
2023-05-21T11:21:32.545Z,41.46
2023-05-21T11:23:59.148Z,40.49
2023-05-21T11:26:25.650Z,40.34
2023-05-21T11:28:52.221Z,40.74
2023-05-21T11:31:19.150Z,39.87
2023-05-21T11:33:48.407Z,39.91
2023-05-21T11:36:15.078Z,39.90
2023-05-21T11:38:42.667Z,39.83
2023-05-21T11:41:09.312Z,40.28
2023-05-21T11:43:36.626Z,40.21
2023-05-21T11:46:03.240Z,39.89
2023-05-21T11:48:31.857Z,41.69
2023-05-21T11:50:59.122Z,39.10
2023-05-21T11:53:25.943Z,39.64
2023-05-21T11:55:52.613Z,39.31
2023-05-21T11:58:19.560Z,39.30
2023-05-21T12:00:48.214Z,39.41
2023-05-21T12:03:15.932Z,39.15
2023-05-21T12:05:43.080Z,38.78
2023-05-21T12:08:16.390Z,38.30
2023-05-21T12:10:46.179Z,37.50
2023-05-21T12:13:12.929Z,38.29
2023-05-21T12:15:42.442Z,39.00
2023-05-21T12:18:09.206Z,38.62
2023-05-21T12:20:36.059Z,38.09
2023-05-21T12:23:02.938Z,39.18
2023-05-21T12:25:29.925Z,38.16
2023-05-21T12:27:56.831Z,38.81
2023-05-21T12:30:26.539Z,38.71
2023-05-21T12:32:56.990Z,38.96
2023-05-21T12:35:24.205Z,39.96
2023-05-21T12:37:52.199Z,39.55
2023-05-21T12:40:20.165Z,38.97
2023-05-21T12:42:46.940Z,39.04
2023-05-21T12:45:13.471Z,39.08
2023-05-21T12:47:40.930Z,38.79
2023-05-21T12:50:09.985Z,40.21
2023-05-21T12:52:40.504Z,38.92
2023-05-21T12:55:09.356Z,38.88
2023-05-21T12:57:36.258Z,38.04
2023-05-21T13:00:05.849Z,38.86
2023-05-21T13:02:32.628Z,38.20
2023-05-21T13:04:59.557Z,38.89
2023-05-21T13:07:29.192Z,39.44
2023-05-21T13:09:55.941Z,39.28
2023-05-21T13:12:22.554Z,38.79
2023-05-21T13:14:49.342Z,38.32
2023-05-21T13:17:16.332Z,37.69
2023-05-21T13:19:45.007Z,37.31
2023-05-21T13:22:11.750Z,36.80
2023-05-21T13:24:38.975Z,38.18
2023-05-21T13:27:05.660Z,37.67
2023-05-21T13:29:37.451Z,37.53
2023-05-21T13:32:06.998Z,37.43
2023-05-21T13:34:34.257Z,36.64
2023-05-21T13:37:00.921Z,36.51
2023-05-21T13:39:33.917Z,36.70
2023-05-21T13:42:00.720Z,35.84
2023-05-21T13:44:27.466Z,35.59
2023-05-21T13:46:54.768Z,35.92
2023-05-21T13:49:21.931Z,36.63
2023-05-21T13:51:48.646Z,35.23
2023-05-21T13:54:16.105Z,35.77
2023-05-21T13:56:42.955Z,36.38
2023-05-21T13:59:12.194Z,37.83
2023-05-21T14:01:40.193Z,37.43
2023-05-21T14:04:07.677Z,36.46
2023-05-21T14:06:34.330Z,36.78
2023-05-21T14:09:04.030Z,36.18
2023-05-21T14:11:30.631Z,35.56
2023-05-21T14:13:57.494Z,35.09
2023-05-21T14:16:24.897Z,36.19
2023-05-21T14:18:51.700Z,36.07
2023-05-21T14:21:18.277Z,35.98
2023-05-21T14:23:45.509Z,35.76
2023-05-21T14:26:12.617Z,37.96
2023-05-21T14:28:39.616Z,36.97
2023-05-21T14:31:06.282Z,36.87
2023-05-21T14:33:32.913Z,36.89
2023-05-21T14:35:59.501Z,36.53
2023-05-21T14:38:26.390Z,36.08
2023-05-21T14:40:53.002Z,36.00
2023-05-21T14:43:22.027Z,35.30
2023-05-21T14:45:50.498Z,36.21
2023-05-21T14:48:17.051Z,35.61
2023-05-21T14:50:45.058Z,35.30
2023-05-21T14:53:15.926Z,35.58
2023-05-21T14:55:43.551Z,34.97
2023-05-21T14:58:10.885Z,34.90
2023-05-21T15:00:37.502Z,35.78
2023-05-21T15:03:04.146Z,36.30
2023-05-21T15:05:33.454Z,35.90
2023-05-21T15:08:02.499Z,36.75
2023-05-21T15:10:30.206Z,36.32
2023-05-21T15:15:50.711Z,35.98
2023-05-21T15:18:17.515Z,36.42
2023-05-21T15:20:44.131Z,36.36
2023-05-21T15:23:17.308Z,35.87
2023-05-21T15:25:45.942Z,35.58
2023-05-21T15:28:14.977Z,35.95
2023-05-21T15:30:41.606Z,36.19
2023-05-21T15:33:08.503Z,37.10
2023-05-21T15:35:36.189Z,38.15
2023-05-21T15:38:03.304Z,38.04
2023-05-21T15:40:30.155Z,37.88
2023-05-21T15:42:57.086Z,38.99
2023-05-21T15:45:24.664Z,39.89
2023-05-21T15:47:51.868Z,39.88
2023-05-21T15:50:20.569Z,38.52
2023-05-21T15:52:48.723Z,37.49
2023-05-21T15:55:16.750Z,37.82
2023-05-21T15:57:46.354Z,37.79
2023-05-21T16:00:15.617Z,37.82
2023-05-21T16:02:42.579Z,37.70
2023-05-21T16:05:12.225Z,38.57
2023-05-21T16:07:40.200Z,38.40
2023-05-21T16:10:08.676Z,38.51
2023-05-21T16:12:38.102Z,38.17
2023-05-21T16:15:05.161Z,37.84
2023-05-21T16:17:31.877Z,36.72
2023-05-21T16:19:58.810Z,37.63
2023-05-21T16:22:25.405Z,37.68
2023-05-21T16:24:54.833Z,38.85
2023-05-21T16:27:22.351Z,38.14
2023-05-21T16:29:49.318Z,38.14
2023-05-21T16:32:16.251Z,38.44
2023-05-21T16:34:43.147Z,39.23
2023-05-21T16:37:10.665Z,38.58
2023-05-21T16:39:37.651Z,39.06
2023-05-21T16:44:51.620Z,40.25
2023-05-21T16:47:20.865Z,39.95
2023-05-21T16:49:55.863Z,39.74
2023-05-21T16:52:23.248Z,39.61
2023-05-21T16:54:53.041Z,39.85
2023-05-21T16:57:19.941Z,38.86
2023-05-21T16:59:46.879Z,38.44
2023-05-21T17:02:17.424Z,39.09
2023-05-21T17:04:51.673Z,38.98
2023-05-21T17:07:20.632Z,37.80
2023-05-21T17:09:50.452Z,37.29
2023-05-21T17:12:17.485Z,36.99
2023-05-21T17:14:48.571Z,36.97
2023-05-21T17:17:15.215Z,38.36
2023-05-21T17:19:44.520Z,38.05
2023-05-21T17:22:11.788Z,37.79
2023-05-21T17:24:38.718Z,37.90
2023-05-21T17:29:37.483Z,38.06
2023-05-21T17:32:04.723Z,37.27
2023-05-21T17:34:32.245Z,37.44
2023-05-21T17:36:59.162Z,37.36
2023-05-21T17:39:26.066Z,36.87
2023-05-21T17:41:52.727Z,36.64
2023-05-21T17:44:19.562Z,38.05
2023-05-21T17:46:46.889Z,37.72
2023-05-21T17:52:01.823Z,37.70
2023-05-21T17:54:29.867Z,37.96
2023-05-21T17:56:56.436Z,38.13
2023-05-21T17:59:23.399Z,37.72
2023-05-21T18:01:50.831Z,38.62
2023-05-21T18:04:18.546Z,38.54
2023-05-21T18:06:45.280Z,38.37
2023-05-21T18:09:11.969Z,37.90
2023-05-21T18:11:38.686Z,38.51
2023-05-21T18:17:24.911Z,38.74
2023-05-21T18:19:51.894Z,38.36
2023-05-21T18:22:19.683Z,38.54
2023-05-21T18:24:47.517Z,38.35
2023-05-21T18:27:14.267Z,38.50
2023-05-21T18:29:41.066Z,38.42
2023-05-21T18:32:07.940Z,38.59
2023-05-21T18:34:35.589Z,38.77
2023-05-21T18:37:02.398Z,39.18
2023-05-21T18:39:30.697Z,40.58
2023-05-21T18:42:12.151Z,40.75
2023-05-21T18:44:39.835Z,40.95
2023-05-21T18:47:06.789Z,41.39
2023-05-21T18:49:33.855Z,42.06
2023-05-21T18:52:00.853Z,42.30
2023-05-21T18:54:28.078Z,42.71
2023-05-21T18:56:54.912Z,42.25
2023-05-21T19:02:09.095Z,42.50
2023-05-21T19:04:36.458Z,42.38
2023-05-21T19:07:05.847Z,42.07
2023-05-21T19:09:32.888Z,42.77
2023-05-21T19:12:07.127Z,42.70
2023-05-21T19:14:34.649Z,42.27
2023-05-21T19:17:03.951Z,42.17
2023-05-21T19:19:31.023Z,42.69
2023-05-21T19:21:58.568Z,42.36
2023-05-21T19:24:28.096Z,42.90
2023-05-21T19:27:03.715Z,42.13
2023-05-21T19:29:32.801Z,42.03
2023-05-21T19:31:59.741Z,42.47
2023-05-21T19:34:26.578Z,44.73
2023-05-21T19:36:56.507Z,48.28
2023-05-21T19:39:28.396Z,51.33
2023-05-21T19:41:56.208Z,51.59
2023-05-21T19:44:25.496Z,51.22
2023-05-21T19:46:53.069Z,51.79
2023-05-21T19:49:21.002Z,52.82
2023-05-21T19:51:49.612Z,52.87
2023-05-21T19:54:17.093Z,51.76
2023-05-21T19:56:47.542Z,51.40
2023-05-21T19:59:15.409Z,49.92
2023-05-21T20:01:44.360Z,48.09
2023-05-21T20:04:12.383Z,47.68
2023-05-21T20:06:43.498Z,47.72
2023-05-21T20:09:16.385Z,47.30
2023-05-21T20:11:47.287Z,47.23
2023-05-21T20:14:17.390Z,46.44
2023-05-21T20:16:46.621Z,46.42
2023-05-21T20:19:13.936Z,46.16
2023-05-21T20:21:41.278Z,46.05
2023-05-21T20:24:11.502Z,47.06
2023-05-21T20:26:38.631Z,46.40
2023-05-21T20:29:05.973Z,47.46
2023-05-21T20:31:35.905Z,47.28
2023-05-21T20:34:04.742Z,46.54
2023-05-21T20:36:31.457Z,48.44
2023-05-21T20:38:58.133Z,46.73
2023-05-21T20:41:24.928Z,47.82
2023-05-21T20:43:54.083Z,50.50
2023-05-21T20:46:21.418Z,49.74
2023-05-21T20:48:49.654Z,49.23
2023-05-21T20:51:16.263Z,50.24
2023-05-21T20:53:42.927Z,51.71
2023-05-21T20:56:11.784Z,53.82
2023-05-21T20:58:38.410Z,52.41
2023-05-21T21:01:06.332Z,50.93
2023-05-21T21:03:36.110Z,49.76
2023-05-21T21:06:03.299Z,50.30
2023-05-21T21:08:32.415Z,49.59
2023-05-21T21:11:01.507Z,48.55
2023-05-21T21:13:45.998Z,50.21
2023-05-21T21:16:12.656Z,49.52
2023-05-21T21:18:39.370Z,48.08
2023-05-21T21:21:06.029Z,47.76
2023-05-21T21:23:32.714Z,49.60
2023-05-21T21:25:59.634Z,48.25
2023-05-21T21:28:27.016Z,48.51
2023-05-21T21:30:54.289Z,48.14
2023-05-21T21:33:21.417Z,47.82
2023-05-21T21:35:51.121Z,48.82
2023-05-21T21:38:18.620Z,48.15
2023-05-21T21:40:46.040Z,47.51
2023-05-21T21:43:13.327Z,48.44
2023-05-21T21:45:44.578Z,48.16
2023-05-21T21:48:11.318Z,48.22
2023-05-21T21:50:38.766Z,48.49
2023-05-21T21:53:05.729Z,48.18
2023-05-21T21:55:32.375Z,49.50
2023-05-21T21:57:58.871Z,50.42
2023-05-21T22:00:26.209Z,52.18
2023-05-21T22:02:57.551Z,49.90
2023-05-21T22:05:24.169Z,49.02
2023-05-21T22:07:53.059Z,49.21
2023-05-21T22:10:20.256Z,49.43
2023-05-21T22:12:47.155Z,48.92
2023-05-21T22:15:13.978Z,49.08
2023-05-21T22:17:40.638Z,48.23
2023-05-21T22:20:07.557Z,48.27
2023-05-21T22:22:37.135Z,48.08
2023-05-21T22:25:03.761Z,47.94
2023-05-21T22:27:31.397Z,47.77
2023-05-21T22:29:58.272Z,47.56
2023-05-21T22:32:24.871Z,48.09
2023-05-21T22:38:08.295Z,48.66
2023-05-21T22:40:37.556Z,48.08
2023-05-21T22:43:04.549Z,48.62
2023-05-21T22:45:31.146Z,48.12
2023-05-21T22:47:57.729Z,48.56
2023-05-21T22:50:25.066Z,48.41
2023-05-21T22:52:52.667Z,48.33
2023-05-21T22:55:19.329Z,48.59
2023-05-21T22:57:46.172Z,48.36
2023-05-21T23:00:12.749Z,48.25
2023-05-21T23:02:39.448Z,48.59
2023-05-21T23:05:06.501Z,49.16
2023-05-21T23:07:33.182Z,49.36
2023-05-21T23:10:00.594Z,49.95
2023-05-21T23:12:27.241Z,51.01
2023-05-21T23:14:54.267Z,51.00
2023-05-21T23:17:23.336Z,50.42
2023-05-21T23:19:50.791Z,51.47
2023-05-21T23:22:17.421Z,54.85
2023-05-21T23:24:44.250Z,55.89
2023-05-21T23:27:11.052Z,54.87
2023-05-21T23:29:38.109Z,56.78
2023-05-21T23:32:05.262Z,57.24
2023-05-21T23:34:32.002Z,55.84
2023-05-21T23:37:00.288Z,54.99
2023-05-21T23:39:27.481Z,53.56
2023-05-21T23:41:56.433Z,53.05
2023-05-21T23:44:22.994Z,52.04
2023-05-21T23:46:49.520Z,51.38
2023-05-21T23:49:18.088Z,50.80
2023-05-21T23:51:45.669Z,51.30
2023-05-21T23:54:12.968Z,50.72
2023-05-21T23:56:39.565Z,50.43
2023-05-21T23:59:06.184Z,49.97
